powered by Meteolive.it
Dati meteo   Attuali  Passati Ogni 3 ore 7 Giorni 15 Giorni Avvisi Meteo Mappe meteo
Roma / Urbe, Italy
Alba: 6:59 AM UTC1
Tramonto: 5:47 PM UTC1
 Lat: 41.95N, Lon: 12.50E
ICAO Usato: LIRU
Condizioni Meteo Attuali Aggiornate: 21.02.2017 alle 16:50 LT
Quasi Sereno
Quasi Sereno
N/D
N/D
Temp: 15°C
Umidita': 45%
Direz/Vel. Vento: SSW 08 KTS
Pressione: 1021 hPa
Punto di rugiada: 3°C
Temperatura percepita: 15°C
Visibilitą: >10 KM (ottima)
Temperatura percepita in
presenza di vento (Wind Chill)
:
14°C
T. max (ultime 24 ore): 16°C
T. min (ultime 24 ore): N/D


METAR ORIGINALE
LIRU 211450Z 26008KT CAVOK 15/03 Q1021